Daleville, Alabama
Current Conditions -  °F | °C
As of 7:58 PM on Thursday 20 Nov 2014 (Local Time) from KOZR Reporting Station
Clear Clear  
Wind Chill:   Ceiling: Unl
Heat Index:   Visibility: 10mi
Dew Point:   Wind: 0mph
Humidity: 81%   Direction: NA
Pressure: 30.25"   Gusts: NA
Location:  31.31°N, 85.71°W
Report Text: KOZR 210158Z AUTO 00000KT 10SM CLR 09/05 A3025 RMK AO2 SLP247 T00850054 RVRNO
Loading
Personal Weather Stations






























Interactive Weather Map New forecast layout! Learn more

10-Day Weather Forecast

Advertisements
Track Severe Weather on mobile